sensor_id;sensor_type;location;lat;lon;timestamp;P1;durP1;ratioP1;P2;durP2;ratioP2
2892;SDS011;1456;51.840;12.184;2023-07-31T00:01:11;1.60;;;1.60;;
2892;SDS011;1456;51.840;12.184;2023-07-31T00:03:37;1.30;;;1.30;;
2892;SDS011;1456;51.840;12.184;2023-07-31T00:06:02;1.17;;;1.17;;
2892;SDS011;1456;51.840;12.184;2023-07-31T00:10:59;1.60;;;1.60;;
2892;SDS011;1456;51.840;12.184;2023-07-31T00:13:25;1.73;;;1.73;;
2892;SDS011;1456;51.840;12.184;2023-07-31T00:15:51;1.30;;;1.30;;
2892;SDS011;1456;51.840;12.184;2023-07-31T00:18:18;1.43;;;1.40;;
2892;SDS011;1456;51.840;12.184;2023-07-31T00:20:43;1.40;;;1.40;;
2892;SDS011;1456;51.840;12.184;2023-07-31T00:23:09;1.83;;;1.83;;
2892;SDS011;1456;51.840;12.184;2023-07-31T00:25:35;1.40;;;1.40;;
2892;SDS011;1456;51.840;12.184;2023-07-31T00:28:01;1.60;;;1.60;;
2892;SDS011;1456;51.840;12.184;2023-07-31T00:30:28;2.47;;;2.37;;
2892;SDS011;1456;51.840;12.184;2023-07-31T00:32:55;1.87;;;1.80;;
2892;SDS011;1456;51.840;12.184;2023-07-31T00:35:21;1.50;;;1.50;;
2892;SDS011;1456;51.840;12.184;2023-07-31T00:37:46;1.00;;;1.00;;
2892;SDS011;1456;51.840;12.184;2023-07-31T00:40:12;2.17;;;1.97;;
2892;SDS011;1456;51.840;12.184;2023-07-31T00:42:39;1.20;;;1.20;;
2892;SDS011;1456;51.840;12.184;2023-07-31T00:45:05;1.37;;;1.37;;
2892;SDS011;1456;51.840;12.184;2023-07-31T00:47:30;1.93;;;1.83;;
2892;SDS011;1456;51.840;12.184;2023-07-31T00:49:57;1.40;;;1.40;;
2892;SDS011;1456;51.840;12.184;2023-07-31T00:52:24;2.13;;;2.03;;
2892;SDS011;1456;51.840;12.184;2023-07-31T00:54:49;1.33;;;1.33;;
2892;SDS011;1456;51.840;12.184;2023-07-31T00:57:16;1.73;;;1.73;;
2892;SDS011;1456;51.840;12.184;2023-07-31T00:59:43;1.30;;;1.30;;
2892;SDS011;1456;51.840;12.184;2023-07-31T01:02:09;1.03;;;1.03;;
2892;SDS011;1456;51.840;12.184;2023-07-31T01:04:35;2.30;;;1.40;;
2892;SDS011;1456;51.840;12.184;2023-07-31T01:07:10;1.00;;;1.00;;
2892;SDS011;1456;51.840;12.184;2023-07-31T01:12:32;1.13;;;1.13;;
2892;SDS011;1456;51.840;12.184;2023-07-31T01:15:04;1.57;;;1.57;;
2892;SDS011;1456;51.840;12.184;2023-07-31T01:17:31;1.70;;;1.60;;
2892;SDS011;1456;51.840;12.184;2023-07-31T01:19:59;1.70;;;1.63;;
2892;SDS011;1456;51.840;12.184;2023-07-31T01:28:03;1.10;;;1.10;;
2892;SDS011;1456;51.840;12.184;2023-07-31T01:30:34;1.10;;;1.10;;
2892;SDS011;1456;51.840;12.184;2023-07-31T01:33:05;1.30;;;1.30;;
2892;SDS011;1456;51.840;12.184;2023-07-31T01:35:36;1.10;;;1.10;;
2892;SDS011;1456;51.840;12.184;2023-07-31T01:38:03;1.37;;;1.37;;
2892;SDS011;1456;51.840;12.184;2023-07-31T01:40:31;1.00;;;1.00;;
2892;SDS011;1456;51.840;12.184;2023-07-31T01:42:56;1.63;;;1.53;;
2892;SDS011;1456;51.840;12.184;2023-07-31T01:45:22;1.20;;;1.20;;
2892;SDS011;1456;51.840;12.184;2023-07-31T01:47:47;1.30;;;1.30;;
2892;SDS011;1456;51.840;12.184;2023-07-31T01:50:13;1.00;;;1.00;;
2892;SDS011;1456;51.840;12.184;2023-07-31T01:52:41;1.40;;;1.30;;
2892;SDS011;1456;51.840;12.184;2023-07-31T01:55:06;1.43;;;1.43;;
2892;SDS011;1456;51.840;12.184;2023-07-31T01:57:33;1.60;;;1.60;;
2892;SDS011;1456;51.840;12.184;2023-07-31T02:00:00;1.10;;;1.10;;
2892;SDS011;1456;51.840;12.184;2023-07-31T02:02:26;1.57;;;1.57;;
2892;SDS011;1456;51.840;12.184;2023-07-31T02:04:51;1.00;;;1.00;;
2892;SDS011;1456;51.840;12.184;2023-07-31T02:07:17;1.67;;;1.57;;
2892;SDS011;1456;51.840;12.184;2023-07-31T02:09:44;0.90;;;0.90;;
2892;SDS011;1456;51.840;12.184;2023-07-31T02:12:10;1.10;;;1.10;;
2892;SDS011;1456;51.840;12.184;2023-07-31T02:14:36;1.60;;;1.60;;
2892;SDS011;1456;51.840;12.184;2023-07-31T02:17:03;1.00;;;1.00;;
2892;SDS011;1456;51.840;12.184;2023-07-31T02:19:28;1.00;;;1.00;;
2892;SDS011;1456;51.840;12.184;2023-07-31T02:21:54;1.10;;;1.10;;
2892;SDS011;1456;51.840;12.184;2023-07-31T02:24:22;1.23;;;1.20;;
2892;SDS011;1456;51.840;12.184;2023-07-31T02:26:49;1.20;;;1.20;;
2892;SDS011;1456;51.840;12.184;2023-07-31T02:29:15;0.97;;;0.97;;
2892;SDS011;1456;51.840;12.184;2023-07-31T02:31:41;1.10;;;1.10;;
2892;SDS011;1456;51.840;12.184;2023-07-31T02:34:07;0.93;;;0.93;;
2892;SDS011;1456;51.840;12.184;2023-07-31T02:36:33;1.10;;;1.10;;
2892;SDS011;1456;51.840;12.184;2023-07-31T02:41:29;1.00;;;1.00;;
2892;SDS011;1456;51.840;12.184;2023-07-31T02:43:57;1.10;;;1.10;;
2892;SDS011;1456;51.840;12.184;2023-07-31T02:46:23;1.00;;;1.00;;
2892;SDS011;1456;51.840;12.184;2023-07-31T02:48:50;1.53;;;1.43;;
2892;SDS011;1456;51.840;12.184;2023-07-31T02:51:19;1.30;;;1.30;;
2892;SDS011;1456;51.840;12.184;2023-07-31T02:53:46;1.40;;;1.40;;
2892;SDS011;1456;51.840;12.184;2023-07-31T02:56:12;1.60;;;1.60;;
2892;SDS011;1456;51.840;12.184;2023-07-31T02:58:38;2.20;;;2.10;;
2892;SDS011;1456;51.840;12.184;2023-07-31T03:01:06;1.27;;;1.27;;
2892;SDS011;1456;51.840;12.184;2023-07-31T03:03:32;1.00;;;1.00;;
2892;SDS011;1456;51.840;12.184;2023-07-31T03:05:58;1.30;;;1.30;;
2892;SDS011;1456;51.840;12.184;2023-07-31T03:08:25;1.00;;;1.00;;
2892;SDS011;1456;51.840;12.184;2023-07-31T03:10:50;1.00;;;1.00;;
2892;SDS011;1456;51.840;12.184;2023-07-31T03:13:17;0.90;;;0.90;;
2892;SDS011;1456;51.840;12.184;2023-07-31T03:15:43;1.10;;;1.10;;
2892;SDS011;1456;51.840;12.184;2023-07-31T03:18:09;1.63;;;1.57;;
2892;SDS011;1456;51.840;12.184;2023-07-31T03:20:34;0.90;;;0.90;;
2892;SDS011;1456;51.840;12.184;2023-07-31T03:23:01;1.63;;;1.63;;
2892;SDS011;1456;51.840;12.184;2023-07-31T03:25:28;1.13;;;1.13;;
2892;SDS011;1456;51.840;12.184;2023-07-31T03:27:53;1.50;;;1.40;;
2892;SDS011;1456;51.840;12.184;2023-07-31T03:30:21;0.90;;;0.90;;
2892;SDS011;1456;51.840;12.184;2023-07-31T03:32:47;1.10;;;1.10;;
2892;SDS011;1456;51.840;12.184;2023-07-31T03:35:13;1.10;;;1.10;;
2892;SDS011;1456;51.840;12.184;2023-07-31T03:37:39;1.30;;;1.30;;
2892;SDS011;1456;51.840;12.184;2023-07-31T03:40:05;0.83;;;0.83;;
2892;SDS011;1456;51.840;12.184;2023-07-31T03:42:31;1.20;;;1.20;;
2892;SDS011;1456;51.840;12.184;2023-07-31T03:44:57;2.13;;;2.03;;
2892;SDS011;1456;51.840;12.184;2023-07-31T03:47:23;1.17;;;1.17;;
2892;SDS011;1456;51.840;12.184;2023-07-31T03:49:49;1.10;;;1.10;;
2892;SDS011;1456;51.840;12.184;2023-07-31T03:52:15;1.13;;;1.13;;
2892;SDS011;1456;51.840;12.184;2023-07-31T03:54:41;1.00;;;1.00;;
2892;SDS011;1456;51.840;12.184;2023-07-31T03:57:09;0.90;;;0.90;;
2892;SDS011;1456;51.840;12.184;2023-07-31T03:59:36;1.77;;;1.67;;
2892;SDS011;1456;51.840;12.184;2023-07-31T04:02:04;1.13;;;1.13;;
2892;SDS011;1456;51.840;12.184;2023-07-31T04:04:32;2.40;;;1.00;;
2892;SDS011;1456;51.840;12.184;2023-07-31T04:06:59;1.10;;;1.10;;
2892;SDS011;1456;51.840;12.184;2023-07-31T04:09:26;0.90;;;0.90;;
2892;SDS011;1456;51.840;12.184;2023-07-31T04:11:52;0.80;;;0.80;;
2892;SDS011;1456;51.840;12.184;2023-07-31T04:14:20;1.43;;;1.33;;
2892;SDS011;1456;51.840;12.184;2023-07-31T04:16:46;1.20;;;1.20;;
2892;SDS011;1456;51.840;12.184;2023-07-31T04:19:12;0.90;;;0.90;;
2892;SDS011;1456;51.840;12.184;2023-07-31T04:21:41;1.10;;;1.10;;
2892;SDS011;1456;51.840;12.184;2023-07-31T04:24:07;1.30;;;1.30;;
2892;SDS011;1456;51.840;12.184;2023-07-31T04:26:33;1.00;;;1.00;;
2892;SDS011;1456;51.840;12.184;2023-07-31T04:28:58;3.03;;;1.50;;
2892;SDS011;1456;51.840;12.184;2023-07-31T04:31:27;1.23;;;1.23;;
2892;SDS011;1456;51.840;12.184;2023-07-31T04:33:55;1.33;;;1.33;;
2892;SDS011;1456;51.840;12.184;2023-07-31T04:36:20;5.43;;;2.57;;
2892;SDS011;1456;51.840;12.184;2023-07-31T04:38:47;1.17;;;1.17;;
2892;SDS011;1456;51.840;12.184;2023-07-31T04:41:13;1.77;;;1.67;;
2892;SDS011;1456;51.840;12.184;2023-07-31T04:43:38;0.90;;;0.90;;
2892;SDS011;1456;51.840;12.184;2023-07-31T04:46:05;0.90;;;0.90;;
2892;SDS011;1456;51.840;12.184;2023-07-31T04:48:31;1.33;;;1.33;;
2892;SDS011;1456;51.840;12.184;2023-07-31T04:50:58;1.10;;;1.10;;
2892;SDS011;1456;51.840;12.184;2023-07-31T04:53:23;1.00;;;1.00;;
2892;SDS011;1456;51.840;12.184;2023-07-31T04:55:50;1.73;;;1.63;;
2892;SDS011;1456;51.840;12.184;2023-07-31T04:58:18;1.13;;;1.13;;
2892;SDS011;1456;51.840;12.184;2023-07-31T05:00:45;0.90;;;0.90;;
2892;SDS011;1456;51.840;12.184;2023-07-31T05:03:11;19.20;;;2.87;;
2892;SDS011;1456;51.840;12.184;2023-07-31T05:05:37;1.93;;;1.83;;
2892;SDS011;1456;51.840;12.184;2023-07-31T05:08:03;2.50;;;2.30;;
2892;SDS011;1456;51.840;12.184;2023-07-31T05:10:30;0.80;;;0.80;;
2892;SDS011;1456;51.840;12.184;2023-07-31T05:13:07;1.43;;;1.40;;
2892;SDS011;1456;51.840;12.184;2023-07-31T05:15:34;0.80;;;0.80;;
2892;SDS011;1456;51.840;12.184;2023-07-31T05:18:00;0.90;;;0.90;;
2892;SDS011;1456;51.840;12.184;2023-07-31T05:20:26;1.50;;;1.50;;
2892;SDS011;1456;51.840;12.184;2023-07-31T05:22:52;1.10;;;1.10;;
2892;SDS011;1456;51.840;12.184;2023-07-31T05:25:19;1.10;;;1.10;;
2892;SDS011;1456;51.840;12.184;2023-07-31T05:27:53;1.00;;;1.00;;
2892;SDS011;1456;51.840;12.184;2023-07-31T05:30:20;1.10;;;1.10;;
2892;SDS011;1456;51.840;12.184;2023-07-31T05:32:46;1.40;;;1.40;;
2892;SDS011;1456;51.840;12.184;2023-07-31T05:35:13;1.00;;;1.00;;
2892;SDS011;1456;51.840;12.184;2023-07-31T05:37:40;1.63;;;1.57;;
2892;SDS011;1456;51.840;12.184;2023-07-31T05:40:06;0.77;;;0.77;;
2892;SDS011;1456;51.840;12.184;2023-07-31T05:42:32;1.50;;;1.40;;
2892;SDS011;1456;51.840;12.184;2023-07-31T05:44:58;0.97;;;0.97;;
2892;SDS011;1456;51.840;12.184;2023-07-31T05:47:24;2.60;;;1.43;;
2892;SDS011;1456;51.840;12.184;2023-07-31T05:49:49;2.87;;;1.63;;
2892;SDS011;1456;51.840;12.184;2023-07-31T05:52:18;1.10;;;1.00;;
2892;SDS011;1456;51.840;12.184;2023-07-31T05:54:46;1.00;;;1.00;;
2892;SDS011;1456;51.840;12.184;2023-07-31T05:57:13;1.10;;;1.10;;
2892;SDS011;1456;51.840;12.184;2023-07-31T05:59:42;1.60;;;1.50;;
2892;SDS011;1456;51.840;12.184;2023-07-31T06:02:10;0.80;;;0.80;;
2892;SDS011;1456;51.840;12.184;2023-07-31T06:04:36;0.90;;;0.90;;
2892;SDS011;1456;51.840;12.184;2023-07-31T06:07:08;1.10;;;1.10;;
2892;SDS011;1456;51.840;12.184;2023-07-31T06:09:36;1.40;;;1.30;;
2892;SDS011;1456;51.840;12.184;2023-07-31T06:12:02;2.90;;;1.10;;
2892;SDS011;1456;51.840;12.184;2023-07-31T06:14:29;1.30;;;1.30;;
2892;SDS011;1456;51.840;12.184;2023-07-31T06:16:56;0.70;;;0.70;;
2892;SDS011;1456;51.840;12.184;2023-07-31T06:19:23;1.70;;;1.60;;
2892;SDS011;1456;51.840;12.184;2023-07-31T06:21:48;1.43;;;1.43;;
2892;SDS011;1456;51.840;12.184;2023-07-31T06:24:15;1.77;;;1.67;;
2892;SDS011;1456;51.840;12.184;2023-07-31T06:26:44;0.80;;;0.80;;
2892;SDS011;1456;51.840;12.184;2023-07-31T06:29:11;1.57;;;1.47;;
2892;SDS011;1456;51.840;12.184;2023-07-31T06:31:40;1.07;;;1.07;;
2892;SDS011;1456;51.840;12.184;2023-07-31T06:34:07;1.47;;;1.37;;
2892;SDS011;1456;51.840;12.184;2023-07-31T06:36:32;0.90;;;0.90;;
2892;SDS011;1456;51.840;12.184;2023-07-31T06:38:58;1.33;;;1.23;;
2892;SDS011;1456;51.840;12.184;2023-07-31T06:41:25;3.30;;;2.07;;
2892;SDS011;1456;51.840;12.184;2023-07-31T06:43:50;1.00;;;1.00;;
2892;SDS011;1456;51.840;12.184;2023-07-31T06:46:17;0.90;;;0.90;;
2892;SDS011;1456;51.840;12.184;2023-07-31T06:48:42;1.00;;;1.00;;
2892;SDS011;1456;51.840;12.184;2023-07-31T06:51:08;0.97;;;0.97;;
2892;SDS011;1456;51.840;12.184;2023-07-31T06:53:34;1.10;;;1.10;;
2892;SDS011;1456;51.840;12.184;2023-07-31T06:56:00;2.30;;;1.57;;
2892;SDS011;1456;51.840;12.184;2023-07-31T06:58:26;1.03;;;1.03;;
2892;SDS011;1456;51.840;12.184;2023-07-31T07:00:54;0.80;;;0.80;;
2892;SDS011;1456;51.840;12.184;2023-07-31T07:03:20;0.70;;;0.70;;
2892;SDS011;1456;51.840;12.184;2023-07-31T07:05:46;1.30;;;1.30;;
2892;SDS011;1456;51.840;12.184;2023-07-31T07:08:12;1.03;;;0.93;;
2892;SDS011;1456;51.840;12.184;2023-07-31T07:10:38;0.67;;;0.60;;
2892;SDS011;1456;51.840;12.184;2023-07-31T07:13:04;0.70;;;0.70;;
2892;SDS011;1456;51.840;12.184;2023-07-31T07:15:32;1.20;;;1.20;;
2892;SDS011;1456;51.840;12.184;2023-07-31T07:17:57;5.73;;;1.07;;
2892;SDS011;1456;51.840;12.184;2023-07-31T07:20:23;0.73;;;0.73;;
2892;SDS011;1456;51.840;12.184;2023-07-31T07:22:49;1.43;;;1.43;;
2892;SDS011;1456;51.840;12.184;2023-07-31T07:25:15;1.10;;;1.10;;
2892;SDS011;1456;51.840;12.184;2023-07-31T07:27:42;1.40;;;0.63;;
2892;SDS011;1456;51.840;12.184;2023-07-31T07:30:13;0.70;;;0.67;;
2892;SDS011;1456;51.840;12.184;2023-07-31T07:32:39;2.60;;;1.27;;
2892;SDS011;1456;51.840;12.184;2023-07-31T07:35:05;2.00;;;1.10;;
2892;SDS011;1456;51.840;12.184;2023-07-31T07:37:31;0.60;;;0.60;;
2892;SDS011;1456;51.840;12.184;2023-07-31T07:39:58;0.60;;;0.60;;
2892;SDS011;1456;51.840;12.184;2023-07-31T07:42:25;0.70;;;0.70;;
2892;SDS011;1456;51.840;12.184;2023-07-31T07:44:50;1.90;;;1.80;;
2892;SDS011;1456;51.840;12.184;2023-07-31T07:49:46;1.23;;;1.23;;
2892;SDS011;1456;51.840;12.184;2023-07-31T07:52:13;0.60;;;0.60;;
2892;SDS011;1456;51.840;12.184;2023-07-31T07:54:41;0.90;;;0.90;;
2892;SDS011;1456;51.840;12.184;2023-07-31T07:57:08;1.37;;;1.27;;
2892;SDS011;1456;51.840;12.184;2023-07-31T07:59:34;1.00;;;1.00;;
2892;SDS011;1456;51.840;12.184;2023-07-31T08:02:00;0.80;;;0.80;;
2892;SDS011;1456;51.840;12.184;2023-07-31T08:04:30;1.20;;;1.20;;
2892;SDS011;1456;51.840;12.184;2023-07-31T08:06:55;1.17;;;0.90;;
2892;SDS011;1456;51.840;12.184;2023-07-31T08:09:21;1.53;;;0.70;;
2892;SDS011;1456;51.840;12.184;2023-07-31T08:11:49;0.67;;;0.67;;
2892;SDS011;1456;51.840;12.184;2023-07-31T08:14:18;0.80;;;0.80;;
2892;SDS011;1456;51.840;12.184;2023-07-31T08:16:44;0.90;;;0.90;;
2892;SDS011;1456;51.840;12.184;2023-07-31T08:19:10;1.20;;;1.20;;
2892;SDS011;1456;51.840;12.184;2023-07-31T08:21:38;2.00;;;1.90;;
2892;SDS011;1456;51.840;12.184;2023-07-31T08:24:05;1.20;;;1.10;;
2892;SDS011;1456;51.840;12.184;2023-07-31T08:26:36;1.63;;;1.63;;
2892;SDS011;1456;51.840;12.184;2023-07-31T08:29:02;1.67;;;1.67;;
2892;SDS011;1456;51.840;12.184;2023-07-31T08:31:30;1.83;;;1.80;;
2892;SDS011;1456;51.840;12.184;2023-07-31T08:33:56;2.90;;;2.70;;
2892;SDS011;1456;51.840;12.184;2023-07-31T08:36:22;2.53;;;2.50;;
2892;SDS011;1456;51.840;12.184;2023-07-31T08:38:49;3.67;;;3.57;;
2892;SDS011;1456;51.840;12.184;2023-07-31T08:41:15;5.03;;;4.83;;
2892;SDS011;1456;51.840;12.184;2023-07-31T08:43:47;3.33;;;3.33;;
2892;SDS011;1456;51.840;12.184;2023-07-31T08:46:16;3.70;;;3.70;;
2892;SDS011;1456;51.840;12.184;2023-07-31T08:48:42;3.80;;;3.80;;
2892;SDS011;1456;51.840;12.184;2023-07-31T08:51:14;4.10;;;4.10;;
2892;SDS011;1456;51.840;12.184;2023-07-31T08:53:41;5.67;;;5.57;;
2892;SDS011;1456;51.840;12.184;2023-07-31T08:56:07;5.20;;;5.10;;
2892;SDS011;1456;51.840;12.184;2023-07-31T08:58:34;4.10;;;4.00;;
2892;SDS011;1456;51.840;12.184;2023-07-31T09:01:01;6.10;;;6.00;;
2892;SDS011;1456;51.840;12.184;2023-07-31T09:03:31;4.70;;;4.70;;
2892;SDS011;1456;51.840;12.184;2023-07-31T09:05:59;5.80;;;5.53;;
2892;SDS011;1456;51.840;12.184;2023-07-31T09:08:26;5.60;;;5.50;;
2892;SDS011;1456;51.840;12.184;2023-07-31T09:10:58;6.80;;;6.50;;
2892;SDS011;1456;51.840;12.184;2023-07-31T09:13:25;7.20;;;7.10;;
2892;SDS011;1456;51.840;12.184;2023-07-31T09:15:54;6.20;;;6.10;;
2892;SDS011;1456;51.840;12.184;2023-07-31T09:18:20;6.07;;;5.77;;
2892;SDS011;1456;51.840;12.184;2023-07-31T09:21:00;7.00;;;6.80;;
2892;SDS011;1456;51.840;12.184;2023-07-31T09:23:43;6.37;;;6.27;;
2892;SDS011;1456;51.840;12.184;2023-07-31T09:26:10;6.80;;;6.70;;
2892;SDS011;1456;51.840;12.184;2023-07-31T09:28:36;5.97;;;5.90;;
2892;SDS011;1456;51.840;12.184;2023-07-31T09:31:02;6.50;;;6.40;;
2892;SDS011;1456;51.840;12.184;2023-07-31T09:33:28;6.00;;;5.90;;
2892;SDS011;1456;51.840;12.184;2023-07-31T09:36:00;6.70;;;6.60;;
2892;SDS011;1456;51.840;12.184;2023-07-31T09:38:27;6.83;;;6.63;;
2892;SDS011;1456;51.840;12.184;2023-07-31T09:40:54;5.90;;;5.80;;
2892;SDS011;1456;51.840;12.184;2023-07-31T09:43:23;5.90;;;5.70;;
2892;SDS011;1456;51.840;12.184;2023-07-31T09:45:56;6.00;;;5.90;;
2892;SDS011;1456;51.840;12.184;2023-07-31T09:48:23;6.73;;;6.43;;
2892;SDS011;1456;51.840;12.184;2023-07-31T09:50:52;6.43;;;6.33;;
2892;SDS011;1456;51.840;12.184;2023-07-31T09:53:19;5.20;;;5.20;;
2892;SDS011;1456;51.840;12.184;2023-07-31T09:55:57;5.60;;;5.30;;
2892;SDS011;1456;51.840;12.184;2023-07-31T09:58:25;4.93;;;4.80;;
2892;SDS011;1456;51.840;12.184;2023-07-31T10:00:53;5.57;;;5.37;;
2892;SDS011;1456;51.840;12.184;2023-07-31T10:03:21;4.60;;;4.60;;
2892;SDS011;1456;51.840;12.184;2023-07-31T10:05:52;4.10;;;4.10;;
2892;SDS011;1456;51.840;12.184;2023-07-31T10:08:23;3.90;;;3.80;;
2892;SDS011;1456;51.840;12.184;2023-07-31T10:10:59;3.97;;;3.97;;
2892;SDS011;1456;51.840;12.184;2023-07-31T10:13:28;3.73;;;3.73;;
2892;SDS011;1456;51.840;12.184;2023-07-31T10:15:58;4.10;;;4.00;;
2892;SDS011;1456;51.840;12.184;2023-07-31T10:18:28;3.63;;;3.63;;
2892;SDS011;1456;51.840;12.184;2023-07-31T10:20:54;4.40;;;4.40;;
2892;SDS011;1456;51.840;12.184;2023-07-31T10:23:22;4.93;;;4.83;;
2892;SDS011;1456;51.840;12.184;2023-07-31T10:25:50;4.10;;;4.10;;
2892;SDS011;1456;51.840;12.184;2023-07-31T10:28:19;4.20;;;4.10;;
2892;SDS011;1456;51.840;12.184;2023-07-31T10:30:46;3.70;;;3.70;;
2892;SDS011;1456;51.840;12.184;2023-07-31T10:33:13;4.80;;;4.60;;
2892;SDS011;1456;51.840;12.184;2023-07-31T10:35:41;4.87;;;4.83;;
2892;SDS011;1456;51.840;12.184;2023-07-31T10:38:12;4.20;;;4.20;;
2892;SDS011;1456;51.840;12.184;2023-07-31T10:40:40;4.80;;;4.70;;
2892;SDS011;1456;51.840;12.184;2023-07-31T10:43:07;4.90;;;4.80;;
2892;SDS011;1456;51.840;12.184;2023-07-31T10:45:43;5.03;;;4.93;;
2892;SDS011;1456;51.840;12.184;2023-07-31T10:48:12;4.87;;;4.87;;
2892;SDS011;1456;51.840;12.184;2023-07-31T10:50:50;4.60;;;4.60;;
2892;SDS011;1456;51.840;12.184;2023-07-31T10:53:28;5.87;;;5.77;;
2892;SDS011;1456;51.840;12.184;2023-07-31T10:56:05;6.10;;;6.00;;
2892;SDS011;1456;51.840;12.184;2023-07-31T10:58:38;4.80;;;4.80;;
2892;SDS011;1456;51.840;12.184;2023-07-31T11:01:05;6.07;;;5.97;;
2892;SDS011;1456;51.840;12.184;2023-07-31T11:03:45;6.33;;;5.97;;
2892;SDS011;1456;51.840;12.184;2023-07-31T11:06:15;5.77;;;5.70;;
2892;SDS011;1456;51.840;12.184;2023-07-31T11:08:45;6.10;;;5.90;;
2892;SDS011;1456;51.840;12.184;2023-07-31T11:11:16;6.23;;;5.53;;
2892;SDS011;1456;51.840;12.184;2023-07-31T11:13:50;5.30;;;5.20;;
2892;SDS011;1456;51.840;12.184;2023-07-31T11:16:20;5.17;;;5.10;;
2892;SDS011;1456;51.840;12.184;2023-07-31T11:18:48;4.60;;;4.60;;
2892;SDS011;1456;51.840;12.184;2023-07-31T11:21:14;4.43;;;4.37;;
2892;SDS011;1456;51.840;12.184;2023-07-31T11:23:41;5.73;;;5.47;;
2892;SDS011;1456;51.840;12.184;2023-07-31T11:26:16;5.13;;;5.03;;
2892;SDS011;1456;51.840;12.184;2023-07-31T11:28:43;5.20;;;5.10;;
2892;SDS011;1456;51.840;12.184;2023-07-31T11:31:11;3.27;;;3.27;;
2892;SDS011;1456;51.840;12.184;2023-07-31T11:33:37;3.57;;;3.57;;
2892;SDS011;1456;51.840;12.184;2023-07-31T11:36:03;3.10;;;3.10;;
2892;SDS011;1456;51.840;12.184;2023-07-31T11:38:30;3.80;;;3.80;;
2892;SDS011;1456;51.840;12.184;2023-07-31T11:40:58;3.90;;;3.90;;
2892;SDS011;1456;51.840;12.184;2023-07-31T11:43:26;3.50;;;3.50;;
2892;SDS011;1456;51.840;12.184;2023-07-31T11:45:57;4.23;;;4.13;;
2892;SDS011;1456;51.840;12.184;2023-07-31T11:48:25;4.33;;;3.73;;
2892;SDS011;1456;51.840;12.184;2023-07-31T11:51:01;4.33;;;4.23;;
2892;SDS011;1456;51.840;12.184;2023-07-31T11:53:34;4.00;;;3.90;;
2892;SDS011;1456;51.840;12.184;2023-07-31T11:56:09;4.70;;;4.60;;
2892;SDS011;1456;51.840;12.184;2023-07-31T11:58:38;4.00;;;4.00;;
2892;SDS011;1456;51.840;12.184;2023-07-31T12:01:07;6.00;;;5.83;;
2892;SDS011;1456;51.840;12.184;2023-07-31T12:03:34;5.40;;;5.30;;
2892;SDS011;1456;51.840;12.184;2023-07-31T12:06:02;7.30;;;7.10;;
2892;SDS011;1456;51.840;12.184;2023-07-31T12:08:29;5.83;;;5.80;;
2892;SDS011;1456;51.840;12.184;2023-07-31T12:10:54;5.40;;;5.40;;
2892;SDS011;1456;51.840;12.184;2023-07-31T12:13:30;6.87;;;6.43;;
2892;SDS011;1456;51.840;12.184;2023-07-31T12:16:00;7.20;;;7.10;;
2892;SDS011;1456;51.840;12.184;2023-07-31T12:18:28;8.00;;;7.80;;
2892;SDS011;1456;51.840;12.184;2023-07-31T12:20:56;8.53;;;8.23;;
2892;SDS011;1456;51.840;12.184;2023-07-31T12:23:43;8.50;;;8.40;;
2892;SDS011;1456;51.840;12.184;2023-07-31T12:26:13;8.90;;;8.73;;
2892;SDS011;1456;51.840;12.184;2023-07-31T12:31:16;9.23;;;9.03;;
2892;SDS011;1456;51.840;12.184;2023-07-31T12:36:23;8.63;;;8.53;;
2892;SDS011;1456;51.840;12.184;2023-07-31T12:38:49;8.53;;;8.43;;
2892;SDS011;1456;51.840;12.184;2023-07-31T12:41:18;9.53;;;9.23;;
2892;SDS011;1456;51.840;12.184;2023-07-31T12:43:45;8.00;;;7.90;;
2892;SDS011;1456;51.840;12.184;2023-07-31T12:46:11;8.00;;;7.80;;
2892;SDS011;1456;51.840;12.184;2023-07-31T12:48:38;8.60;;;8.20;;
2892;SDS011;1456;51.840;12.184;2023-07-31T12:51:05;7.00;;;6.90;;
2892;SDS011;1456;51.840;12.184;2023-07-31T12:53:32;8.10;;;8.00;;
2892;SDS011;1456;51.840;12.184;2023-07-31T12:56:00;7.50;;;7.40;;
2892;SDS011;1456;51.840;12.184;2023-07-31T12:58:29;8.20;;;8.10;;
2892;SDS011;1456;51.840;12.184;2023-07-31T13:00:56;7.80;;;7.70;;
2892;SDS011;1456;51.840;12.184;2023-07-31T13:03:22;7.50;;;7.40;;
2892;SDS011;1456;51.840;12.184;2023-07-31T13:05:48;7.57;;;7.47;;
2892;SDS011;1456;51.840;12.184;2023-07-31T13:08:14;7.80;;;7.70;;
2892;SDS011;1456;51.840;12.184;2023-07-31T13:10:41;8.30;;;8.20;;
2892;SDS011;1456;51.840;12.184;2023-07-31T13:13:07;9.10;;;8.80;;
2892;SDS011;1456;51.840;12.184;2023-07-31T13:15:32;7.73;;;7.63;;
2892;SDS011;1456;51.840;12.184;2023-07-31T13:17:58;8.57;;;8.37;;
2892;SDS011;1456;51.840;12.184;2023-07-31T13:20:26;9.27;;;9.00;;
2892;SDS011;1456;51.840;12.184;2023-07-31T13:22:52;8.17;;;8.03;;
2892;SDS011;1456;51.840;12.184;2023-07-31T13:25:18;8.37;;;8.27;;
2892;SDS011;1456;51.840;12.184;2023-07-31T13:27:43;8.83;;;8.73;;
2892;SDS011;1456;51.840;12.184;2023-07-31T13:30:10;8.40;;;8.30;;
2892;SDS011;1456;51.840;12.184;2023-07-31T13:32:38;9.33;;;9.10;;
2892;SDS011;1456;51.840;12.184;2023-07-31T13:35:05;9.73;;;9.53;;
2892;SDS011;1456;51.840;12.184;2023-07-31T13:37:33;8.83;;;8.73;;
2892;SDS011;1456;51.840;12.184;2023-07-31T13:40:00;8.87;;;8.77;;
2892;SDS011;1456;51.840;12.184;2023-07-31T13:42:26;9.53;;;9.43;;
2892;SDS011;1456;51.840;12.184;2023-07-31T13:44:53;8.83;;;8.73;;
2892;SDS011;1456;51.840;12.184;2023-07-31T13:47:21;9.20;;;9.10;;
2892;SDS011;1456;51.840;12.184;2023-07-31T13:49:47;8.40;;;8.30;;
2892;SDS011;1456;51.840;12.184;2023-07-31T13:52:12;8.93;;;8.73;;
2892;SDS011;1456;51.840;12.184;2023-07-31T13:54:41;9.50;;;9.30;;
2892;SDS011;1456;51.840;12.184;2023-07-31T13:57:10;9.80;;;9.40;;
2892;SDS011;1456;51.840;12.184;2023-07-31T13:59:36;9.47;;;9.37;;
2892;SDS011;1456;51.840;12.184;2023-07-31T14:02:02;9.37;;;9.23;;
2892;SDS011;1456;51.840;12.184;2023-07-31T14:04:29;10.13;;;9.93;;
2892;SDS011;1456;51.840;12.184;2023-07-31T14:06:55;9.20;;;9.10;;
2892;SDS011;1456;51.840;12.184;2023-07-31T14:09:21;8.83;;;8.50;;
2892;SDS011;1456;51.840;12.184;2023-07-31T14:11:47;8.43;;;8.33;;
2892;SDS011;1456;51.840;12.184;2023-07-31T14:16:49;8.77;;;8.67;;
2892;SDS011;1456;51.840;12.184;2023-07-31T14:19:14;8.47;;;8.37;;
2892;SDS011;1456;51.840;12.184;2023-07-31T14:21:42;8.77;;;8.47;;
2892;SDS011;1456;51.840;12.184;2023-07-31T14:24:08;8.87;;;8.77;;
2892;SDS011;1456;51.840;12.184;2023-07-31T14:26:34;9.30;;;9.10;;
2892;SDS011;1456;51.840;12.184;2023-07-31T14:29:00;10.67;;;10.20;;
2892;SDS011;1456;51.840;12.184;2023-07-31T14:31:26;8.80;;;8.70;;
2892;SDS011;1456;51.840;12.184;2023-07-31T14:33:54;7.70;;;7.60;;
2892;SDS011;1456;51.840;12.184;2023-07-31T14:36:21;8.33;;;8.23;;
2892;SDS011;1456;51.840;12.184;2023-07-31T14:38:47;7.90;;;7.60;;
2892;SDS011;1456;51.840;12.184;2023-07-31T14:41:15;8.17;;;8.07;;
2892;SDS011;1456;51.840;12.184;2023-07-31T14:43:41;8.10;;;8.00;;
2892;SDS011;1456;51.840;12.184;2023-07-31T14:46:06;8.27;;;8.17;;
2892;SDS011;1456;51.840;12.184;2023-07-31T14:48:33;9.03;;;8.83;;
2892;SDS011;1456;51.840;12.184;2023-07-31T14:53:29;8.27;;;8.07;;
2892;SDS011;1456;51.840;12.184;2023-07-31T14:56:00;7.90;;;7.60;;
2892;SDS011;1456;51.840;12.184;2023-07-31T14:58:29;7.73;;;7.63;;
2892;SDS011;1456;51.840;12.184;2023-07-31T15:00:55;8.00;;;7.70;;
2892;SDS011;1456;51.840;12.184;2023-07-31T15:03:20;8.67;;;8.47;;
2892;SDS011;1456;51.840;12.184;2023-07-31T15:05:48;8.50;;;8.40;;
2892;SDS011;1456;51.840;12.184;2023-07-31T15:08:15;7.43;;;7.33;;
2892;SDS011;1456;51.840;12.184;2023-07-31T15:10:41;8.40;;;8.10;;
2892;SDS011;1456;51.840;12.184;2023-07-31T15:13:08;7.73;;;7.63;;
2892;SDS011;1456;51.840;12.184;2023-07-31T15:15:34;7.90;;;7.80;;
2892;SDS011;1456;51.840;12.184;2023-07-31T15:17:59;7.00;;;6.90;;
2892;SDS011;1456;51.840;12.184;2023-07-31T15:22:57;7.40;;;7.30;;
2892;SDS011;1456;51.840;12.184;2023-07-31T15:25:24;7.37;;;7.27;;
2892;SDS011;1456;51.840;12.184;2023-07-31T15:27:49;8.07;;;7.87;;
2892;SDS011;1456;51.840;12.184;2023-07-31T15:30:15;8.00;;;7.90;;